createdAt,value
2018-04-12T00:01:06.489Z,12.28
2018-04-12T00:03:34.014Z,12.29
2018-04-12T00:06:01.601Z,12.32
2018-04-12T00:08:29.116Z,12.29
2018-04-12T00:10:56.719Z,12.36
2018-04-12T00:13:24.248Z,12.38
2018-04-12T00:15:51.839Z,12.43
2018-04-12T00:18:19.404Z,12.39
2018-04-12T00:20:46.959Z,12.41
2018-04-12T00:23:14.518Z,12.38
2018-04-12T00:25:42.076Z,12.37
2018-04-12T00:28:09.640Z,12.36
2018-04-12T00:30:38.224Z,12.30
2018-04-12T00:33:05.781Z,12.42
2018-04-12T00:35:33.341Z,12.50
2018-04-12T00:38:00.871Z,12.51
2018-04-12T00:40:28.468Z,12.51
2018-04-12T00:42:56.025Z,12.51
2018-04-12T00:45:23.682Z,12.48
2018-04-12T00:47:51.201Z,12.47
2018-04-12T00:50:18.800Z,12.54
2018-04-12T00:52:46.359Z,12.55
2018-04-12T00:55:13.914Z,12.46
2018-04-12T00:57:41.439Z,12.49
2018-04-12T01:00:08.988Z,12.57
2018-04-12T01:02:36.518Z,12.59
2018-04-12T01:05:04.055Z,12.62
2018-04-12T01:07:31.725Z,12.70
2018-04-12T01:09:59.277Z,12.62
2018-04-12T01:12:26.821Z,12.64
2018-04-12T01:14:54.333Z,12.68
2018-04-12T01:17:21.881Z,12.66
2018-04-12T01:19:49.470Z,12.65
2018-04-12T01:22:17.076Z,12.60
2018-04-12T01:24:44.597Z,12.65
2018-04-12T01:27:12.194Z,12.61
2018-04-12T01:29:39.767Z,12.63
2018-04-12T01:32:08.324Z,12.63
2018-04-12T01:34:36.649Z,12.61
2018-04-12T01:37:04.197Z,12.64
2018-04-12T01:39:31.733Z,12.64
2018-04-12T01:41:59.290Z,12.64
2018-04-12T01:44:26.829Z,12.63
2018-04-12T01:46:54.411Z,12.59
2018-04-12T01:49:21.937Z,12.60
2018-04-12T01:51:49.540Z,12.62
2018-04-12T01:54:17.093Z,12.66
2018-04-12T01:56:44.752Z,12.55
2018-04-12T01:59:12.271Z,12.56
2018-04-12T02:01:39.821Z,12.64
2018-04-12T02:04:08.299Z,12.62
2018-04-12T02:06:35.912Z,12.63
2018-04-12T02:09:03.508Z,12.56
2018-04-12T02:11:31.135Z,12.54
2018-04-12T02:13:58.659Z,12.37
2018-04-12T02:16:26.266Z,12.42
2018-04-12T02:18:53.816Z,12.41
2018-04-12T02:21:21.364Z,12.15
2018-04-12T02:23:48.895Z,11.70
2018-04-12T02:26:16.492Z,11.92
2018-04-12T02:28:44.050Z,11.70
2018-04-12T02:31:11.621Z,11.68
2018-04-12T02:33:39.153Z,11.72
2018-04-12T02:36:06.731Z,11.52
2018-04-12T02:38:34.288Z,11.51
2018-04-12T02:41:01.951Z,11.49
2018-04-12T02:43:29.509Z,11.42
2018-04-12T02:45:57.069Z,11.40
2018-04-12T02:48:24.630Z,11.32
2018-04-12T02:50:52.170Z,10.96
2018-04-12T02:53:19.747Z,10.96
2018-04-12T02:55:47.309Z,11.08
2018-04-12T02:58:14.870Z,11.27
2018-04-12T03:00:42.429Z,11.49
2018-04-12T03:03:10.101Z,11.58
2018-04-12T03:05:38.608Z,11.58
2018-04-12T03:08:06.234Z,11.65
2018-04-12T03:10:33.792Z,11.68
2018-04-12T03:13:01.341Z,11.71
2018-04-12T03:15:28.870Z,11.78
2018-04-12T03:17:56.419Z,11.77
2018-04-12T03:20:24.030Z,11.70
2018-04-12T03:22:51.590Z,11.69
2018-04-12T03:25:19.150Z,11.65
2018-04-12T03:27:46.844Z,11.53
2018-04-12T03:30:14.382Z,11.55
2018-04-12T03:32:41.949Z,11.49
2018-04-12T03:35:09.490Z,11.57
2018-04-12T03:37:37.050Z,11.78
2018-04-12T03:40:04.590Z,12.01
2018-04-12T03:42:32.146Z,12.16
2018-04-12T03:44:59.673Z,12.20
2018-04-12T03:47:27.222Z,12.22
2018-04-12T03:49:55.358Z,12.27
2018-04-12T03:52:23.021Z,12.34
2018-04-12T03:54:50.589Z,12.38
2018-04-12T03:57:18.155Z,12.40
2018-04-12T03:59:45.709Z,12.43
2018-04-12T04:02:13.311Z,12.46
2018-04-12T04:04:40.841Z,12.48
2018-04-12T04:07:08.790Z,12.46
2018-04-12T04:09:36.361Z,12.45
2018-04-12T04:12:03.937Z,12.38
2018-04-12T04:14:42.150Z,12.44
2018-04-12T04:17:21.389Z,12.49
2018-04-12T04:20:00.627Z,12.46
2018-04-12T04:22:28.175Z,12.43
2018-04-12T04:24:55.805Z,12.39
2018-04-12T04:27:23.382Z,12.48
2018-04-12T04:29:50.909Z,12.50
2018-04-12T04:32:18.437Z,12.50
2018-04-12T04:34:46.044Z,12.49
2018-04-12T04:37:13.573Z,12.40
2018-04-12T04:39:41.163Z,12.34
2018-04-12T04:42:09.396Z,12.38
2018-04-12T04:44:37.001Z,12.35
2018-04-12T04:47:04.557Z,12.36
2018-04-12T04:49:32.735Z,12.39
2018-04-12T04:52:00.305Z,12.37
2018-04-12T04:54:27.961Z,12.31
2018-04-12T04:56:55.608Z,12.33
2018-04-12T04:59:23.177Z,12.31
2018-04-12T05:01:50.940Z,12.27
2018-04-12T05:04:18.499Z,12.19
2018-04-12T05:06:47.342Z,11.76
2018-04-12T05:09:14.897Z,11.95
2018-04-12T05:11:42.625Z,12.06
2018-04-12T05:14:10.278Z,11.99
2018-04-12T05:16:37.834Z,12.08
2018-04-12T05:19:05.395Z,12.12
2018-04-12T05:21:32.952Z,12.20
2018-04-12T05:24:00.530Z,12.25
2018-04-12T05:26:28.066Z,12.31
2018-04-12T05:28:55.619Z,12.35
2018-04-12T05:31:23.138Z,12.42
2018-04-12T05:33:50.740Z,12.54
2018-04-12T05:36:18.473Z,12.57
2018-04-12T05:38:47.998Z,12.65
2018-04-12T05:41:15.734Z,12.69
2018-04-12T05:43:43.303Z,12.79
2018-04-12T05:46:10.907Z,12.83
2018-04-12T05:48:38.564Z,12.92
2018-04-12T05:51:06.085Z,13.01
2018-04-12T05:53:33.661Z,13.16
2018-04-12T05:56:01.243Z,13.10
2018-04-12T05:58:28.821Z,13.18
2018-04-12T06:00:56.370Z,13.28
2018-04-12T06:03:23.926Z,13.39
2018-04-12T06:05:51.498Z,13.49
2018-04-12T06:08:19.040Z,13.52
2018-04-12T06:10:46.605Z,13.60
2018-04-12T06:13:14.880Z,13.62
2018-04-12T06:15:43.258Z,13.62
2018-04-12T06:18:10.815Z,13.65
2018-04-12T06:20:38.387Z,13.65
2018-04-12T06:23:05.943Z,13.58
2018-04-12T06:25:33.598Z,13.62
2018-04-12T06:28:01.117Z,13.54
2018-04-12T06:30:28.716Z,13.53
2018-04-12T06:32:56.275Z,13.45
2018-04-12T06:35:25.400Z,13.42
2018-04-12T06:37:52.951Z,13.51
2018-04-12T06:40:20.595Z,13.45
2018-04-12T06:42:48.134Z,13.52
2018-04-12T06:45:15.710Z,13.67
2018-04-12T06:47:43.270Z,13.71
2018-04-12T06:50:10.931Z,13.78
2018-04-12T06:52:38.492Z,13.87
2018-04-12T06:55:06.061Z,13.98
2018-04-12T06:57:33.615Z,14.11
2018-04-12T07:00:01.174Z,14.04
2018-04-12T07:02:28.774Z,14.05
2018-04-12T07:04:56.390Z,14.13
2018-04-12T07:07:23.949Z,14.18
2018-04-12T07:09:51.626Z,14.29
2018-04-12T07:12:19.182Z,14.26
2018-04-12T07:14:46.837Z,14.39
2018-04-12T07:17:14.360Z,14.48
2018-04-12T07:19:41.914Z,14.40
2018-04-12T07:22:10.035Z,14.41
2018-04-12T07:24:37.596Z,14.38
2018-04-12T07:27:05.246Z,14.32
2018-04-12T07:29:32.802Z,14.16
2018-04-12T07:32:00.672Z,14.17
2018-04-12T07:34:28.334Z,14.13
2018-04-12T07:36:55.854Z,14.12
2018-04-12T07:39:23.381Z,14.16
2018-04-12T07:41:53.314Z,14.29
2018-04-12T07:44:21.755Z,14.35
2018-04-12T07:46:50.524Z,14.27
2018-04-12T07:49:18.196Z,14.35
2018-04-12T07:51:46.045Z,14.40
2018-04-12T07:54:13.567Z,14.31
2018-04-12T07:56:43.207Z,14.39
2018-04-12T07:59:12.693Z,14.52
2018-04-12T08:01:40.333Z,14.63
2018-04-12T08:04:10.678Z,14.75
2018-04-12T08:06:41.484Z,14.82
2018-04-12T08:09:11.378Z,14.84
2018-04-12T08:11:39.505Z,14.94
2018-04-12T08:14:09.388Z,15.05
2018-04-12T08:16:37.017Z,15.11
2018-04-12T08:19:04.691Z,15.15
2018-04-12T08:21:32.496Z,15.28
2018-04-12T08:24:00.108Z,15.31
2018-04-12T08:26:27.671Z,15.42
2018-04-12T08:28:55.810Z,15.58
2018-04-12T08:31:23.481Z,15.33
2018-04-12T08:33:53.026Z,15.29
2018-04-12T08:36:21.104Z,15.47
2018-04-12T08:38:48.744Z,15.68
2018-04-12T08:41:16.728Z,15.74
2018-04-12T08:43:44.316Z,15.90
2018-04-12T08:46:12.273Z,16.06
2018-04-12T08:48:40.270Z,15.95
2018-04-12T08:51:07.856Z,16.01
2018-04-12T08:53:35.531Z,16.34
2018-04-12T08:56:03.299Z,16.31
2018-04-12T08:58:30.859Z,16.36
2018-04-12T09:00:58.457Z,16.12
2018-04-12T09:03:25.989Z,16.14
2018-04-12T09:05:53.990Z,16.00
2018-04-12T09:08:21.607Z,15.96
2018-04-12T09:10:50.704Z,15.96
2018-04-12T09:13:18.344Z,16.31
2018-04-12T09:15:46.217Z,16.52
2018-04-12T09:18:13.803Z,16.67
2018-04-12T09:20:41.378Z,16.63
2018-04-12T09:23:08.910Z,16.78
2018-04-12T09:25:37.806Z,16.53
2018-04-12T09:28:05.485Z,16.31
2018-04-12T09:30:33.010Z,16.16
2018-04-12T09:33:00.565Z,16.18
2018-04-12T09:35:28.093Z,16.29
2018-04-12T09:37:55.716Z,16.21
2018-04-12T09:40:23.249Z,16.10
2018-04-12T09:42:50.824Z,16.12
2018-04-12T09:45:18.381Z,16.05
2018-04-12T09:47:45.929Z,16.26
2018-04-12T09:50:13.505Z,16.33
2018-04-12T09:52:41.098Z,16.33
2018-04-12T09:55:08.734Z,16.10
2018-04-12T09:57:36.309Z,16.10
2018-04-12T10:00:04.032Z,16.24
2018-04-12T10:02:31.541Z,16.36
2018-04-12T10:05:00.743Z,16.23
2018-04-12T10:07:33.923Z,16.49
2018-04-12T10:10:01.555Z,16.40
2018-04-12T10:12:29.217Z,16.53
2018-04-12T10:14:56.750Z,16.51
2018-04-12T10:17:24.414Z,16.28
2018-04-12T10:19:52.006Z,16.04
2018-04-12T10:22:19.585Z,15.90
2018-04-12T10:24:47.116Z,16.21
2018-04-12T10:27:14.665Z,16.17
2018-04-12T10:29:42.214Z,15.86
2018-04-12T10:32:10.545Z,15.77
2018-04-12T10:34:38.322Z,15.79
2018-04-12T10:37:05.970Z,15.81
2018-04-12T10:39:33.507Z,15.74
2018-04-12T10:42:01.105Z,15.61
2018-04-12T10:44:28.631Z,15.53
2018-04-12T10:46:56.181Z,15.53
2018-04-12T10:49:23.733Z,15.81
2018-04-12T10:51:51.314Z,16.12
2018-04-12T10:54:18.855Z,16.65
2018-04-12T10:56:46.834Z,16.44
2018-04-12T10:59:14.491Z,16.78
2018-04-12T11:01:42.046Z,16.37
2018-04-12T11:04:09.709Z,16.71
2018-04-12T11:06:37.247Z,16.37
2018-04-12T11:09:04.827Z,16.23
2018-04-12T11:11:32.397Z,16.17
2018-04-12T11:13:59.982Z,16.21
2018-04-12T11:16:27.510Z,16.13
2018-04-12T11:18:55.062Z,15.86
2018-04-12T11:21:22.605Z,16.03
2018-04-12T11:23:50.165Z,15.93
2018-04-12T11:26:17.693Z,15.81
2018-04-12T11:28:45.242Z,16.01
2018-04-12T11:31:12.871Z,16.13
2018-04-12T11:33:40.720Z,15.88
2018-04-12T11:36:08.287Z,15.77
2018-04-12T11:38:35.827Z,15.75
2018-04-12T11:41:03.428Z,15.58
2018-04-12T11:43:31.084Z,15.38
2018-04-12T11:45:58.648Z,15.61
2018-04-12T11:48:26.291Z,15.76
2018-04-12T11:50:53.813Z,15.60
2018-04-12T11:53:21.375Z,15.53
2018-04-12T11:55:48.924Z,15.66
2018-04-12T11:58:16.494Z,15.54
2018-04-12T12:00:44.022Z,15.45
2018-04-12T12:03:11.651Z,15.59
2018-04-12T12:05:39.174Z,15.85
2018-04-12T12:08:06.730Z,15.92
2018-04-12T12:10:34.258Z,15.74
2018-04-12T12:13:01.887Z,15.28
2018-04-12T12:15:29.457Z,15.04
2018-04-12T12:17:57.012Z,14.97
2018-04-12T12:20:24.536Z,15.30
2018-04-12T12:22:52.126Z,15.13
2018-04-12T12:25:19.644Z,15.03
2018-04-12T12:27:47.246Z,15.21
2018-04-12T12:30:14.804Z,15.54
2018-04-12T12:32:42.327Z,15.65
2018-04-12T12:35:09.905Z,15.71
2018-04-12T12:37:37.430Z,16.05
2018-04-12T12:40:04.970Z,16.18
2018-04-12T12:42:32.486Z,16.43
2018-04-12T12:45:00.058Z,16.24
2018-04-12T12:47:27.616Z,16.63
2018-04-12T12:49:55.193Z,17.05
2018-04-12T12:52:22.705Z,17.45
2018-04-12T12:54:50.302Z,16.56
2018-04-12T12:57:18.002Z,17.15
2018-04-12T12:59:45.577Z,17.54
2018-04-12T13:02:13.184Z,17.46
2018-04-12T13:04:41.767Z,17.19
2018-04-12T13:07:09.338Z,17.54
2018-04-12T13:09:36.885Z,17.16
2018-04-12T13:12:06.459Z,17.27
2018-04-12T13:14:34.069Z,16.81
2018-04-12T13:17:01.614Z,17.42
2018-04-12T13:19:29.277Z,17.32
2018-04-12T13:21:56.798Z,17.46
2018-04-12T13:24:24.753Z,17.73
2018-04-12T13:26:56.859Z,17.22
2018-04-12T13:29:26.836Z,17.05
2018-04-12T13:31:58.055Z,16.81
2018-04-12T13:34:26.033Z,17.28
2018-04-12T13:36:53.583Z,17.41
2018-04-12T13:39:24.196Z,17.32
2018-04-12T13:41:53.688Z,17.99
2018-04-12T13:44:23.625Z,17.59
2018-04-12T13:49:27.227Z,17.48
2018-04-12T13:51:58.108Z,17.31
2018-04-12T13:54:26.901Z,17.27
2018-04-12T13:56:55.550Z,17.41
2018-04-12T13:59:23.804Z,17.37
2018-04-12T14:01:54.216Z,18.00
2018-04-12T14:04:21.935Z,18.43
2018-04-12T14:06:49.565Z,18.72
2018-04-12T14:09:17.122Z,18.08
2018-04-12T14:11:44.682Z,18.07
2018-04-12T14:14:15.642Z,18.18
2018-04-12T14:16:45.775Z,17.98
2018-04-12T14:19:18.534Z,17.96
2018-04-12T14:21:50.972Z,18.44
2018-04-12T14:24:18.701Z,18.04
2018-04-12T14:26:46.332Z,17.68
2018-04-12T14:29:16.445Z,18.13
2018-04-12T14:31:46.128Z,18.94
2018-04-12T14:34:15.995Z,18.54
2018-04-12T14:36:45.100Z,18.80
2018-04-12T14:39:15.139Z,19.00
2018-04-12T14:41:46.206Z,19.07
2018-04-12T14:44:16.940Z,19.34
2018-04-12T14:46:46.999Z,19.40
2018-04-12T14:49:17.025Z,19.21
2018-04-12T14:51:47.160Z,19.45
2018-04-12T14:54:19.152Z,19.48
2018-04-12T14:56:48.130Z,19.79
2018-04-12T14:59:18.531Z,19.70
2018-04-12T15:01:49.258Z,19.16
2018-04-12T15:04:19.372Z,19.69
2018-04-12T15:06:52.844Z,19.92
2018-04-12T15:09:22.739Z,20.09
2018-04-12T15:11:53.676Z,20.26
2018-04-12T15:14:24.695Z,20.40
2018-04-12T15:16:56.091Z,21.11
2018-04-12T15:19:26.906Z,20.65
2018-04-12T15:21:57.957Z,20.69
2018-04-12T15:24:27.903Z,20.50
2018-04-12T15:26:56.246Z,21.12
2018-04-12T15:29:23.931Z,21.13
2018-04-12T15:31:52.996Z,21.77
2018-04-12T15:36:59.296Z,20.68
2018-04-12T15:39:26.895Z,21.35
2018-04-12T15:41:54.508Z,22.09
2018-04-12T15:44:22.074Z,21.35
2018-04-12T15:46:49.806Z,21.94
2018-04-12T15:49:17.330Z,22.33
2018-04-12T15:51:44.960Z,22.24
2018-04-12T15:54:14.706Z,21.87
2018-04-12T15:56:47.392Z,22.02
2018-04-12T15:59:15.933Z,22.69
2018-04-12T16:01:46.273Z,22.51
2018-04-12T16:04:17.442Z,22.28
2018-04-12T16:06:45.853Z,22.33
2018-04-12T16:09:16.245Z,21.72
2018-04-12T16:11:44.525Z,19.62
2018-04-12T16:14:13.384Z,19.89
2018-04-12T16:16:42.889Z,19.76
2018-04-12T16:19:10.777Z,19.31
2018-04-12T16:21:39.129Z,20.03
2018-04-12T16:24:06.889Z,20.37
2018-04-12T16:26:34.486Z,21.07
2018-04-12T16:29:02.191Z,20.74
2018-04-12T16:31:33.762Z,20.18
2018-04-12T16:34:02.450Z,20.25
2018-04-12T16:36:29.974Z,20.19
2018-04-12T16:38:57.554Z,21.02
2018-04-12T16:41:28.717Z,21.51
2018-04-12T16:43:58.100Z,21.51
2018-04-12T16:46:29.552Z,21.66
2018-04-12T16:49:04.110Z,21.72
2018-04-12T16:51:36.051Z,21.45
2018-04-12T16:54:08.428Z,21.29
2018-04-12T16:56:40.041Z,20.26
2018-04-12T16:59:18.065Z,20.36
2018-04-12T17:01:50.087Z,20.49
2018-04-12T17:07:02.722Z,20.78
2018-04-12T17:09:34.485Z,20.16
2018-04-12T17:14:46.184Z,21.20
2018-04-12T17:17:18.695Z,20.60
2018-04-12T17:19:55.719Z,19.95
2018-04-12T17:22:37.942Z,19.91
2018-04-12T17:25:10.599Z,19.70
2018-04-12T17:27:45.141Z,19.56
2018-04-12T17:30:20.147Z,19.57
2018-04-12T17:32:56.614Z,19.86
2018-04-12T17:35:29.347Z,19.66
2018-04-12T17:38:02.459Z,19.87
2018-04-12T17:40:36.015Z,20.42
2018-04-12T17:43:13.531Z,19.94
2018-04-12T17:45:47.373Z,19.88
2018-04-12T17:48:22.719Z,19.18
2018-04-12T17:50:56.280Z,19.23
2018-04-12T17:53:31.165Z,18.93
2018-04-12T17:56:03.578Z,18.76
2018-04-12T17:58:37.155Z,18.05
2018-04-12T18:03:45.982Z,18.03
2018-04-12T18:06:25.105Z,18.04
2018-04-12T18:09:00.338Z,18.00
2018-04-12T18:11:36.992Z,17.87
2018-04-12T18:14:10.949Z,17.81
2018-04-12T18:16:44.954Z,17.55
2018-04-12T18:19:20.506Z,17.50
2018-04-12T18:21:53.457Z,17.55
2018-04-12T18:24:26.709Z,17.44
2018-04-12T18:26:59.602Z,17.35
2018-04-12T18:29:32.726Z,17.19
2018-04-12T18:32:06.062Z,17.15
2018-04-12T18:34:37.156Z,16.88
2018-04-12T18:37:10.859Z,16.59
2018-04-12T18:39:43.527Z,16.62
2018-04-12T18:44:58.643Z,16.27
2018-04-12T18:47:34.350Z,16.25
2018-04-12T18:52:42.330Z,16.05
2018-04-12T18:55:14.228Z,16.00
2018-04-12T18:57:47.820Z,15.86
2018-04-12T19:00:20.877Z,15.76
2018-04-12T19:02:53.922Z,15.59
2018-04-12T19:08:07.359Z,15.34
2018-04-12T19:10:39.699Z,15.37
2018-04-12T19:13:12.043Z,15.34
2018-04-12T19:15:48.903Z,15.28
2018-04-12T19:18:18.699Z,15.26
2018-04-12T19:20:46.702Z,15.26
2018-04-12T19:23:14.258Z,15.05
2018-04-12T19:25:41.885Z,14.87
2018-04-12T19:28:09.429Z,14.81
2018-04-12T19:30:37.043Z,14.60
2018-04-12T19:33:04.607Z,14.32
2018-04-12T19:35:32.735Z,14.28
2018-04-12T19:38:00.366Z,14.00
2018-04-12T19:40:29.926Z,13.99
2018-04-12T19:42:57.523Z,13.86
2018-04-12T19:45:25.099Z,13.53
2018-04-12T19:47:53.494Z,13.29
2018-04-12T19:50:21.053Z,13.43
2018-04-12T19:52:48.556Z,13.58
2018-04-12T19:55:16.109Z,13.57
2018-04-12T19:57:43.633Z,13.45
2018-04-12T20:00:11.186Z,13.33
2018-04-12T20:02:38.713Z,13.27
2018-04-12T20:05:06.280Z,13.22
2018-04-12T20:07:33.811Z,13.18
2018-04-12T20:10:04.843Z,12.90
2018-04-12T20:12:32.617Z,12.60
2018-04-12T20:15:00.177Z,12.49
2018-04-12T20:17:27.709Z,12.39
2018-04-12T20:19:55.428Z,12.31
2018-04-12T20:22:23.702Z,12.37
2018-04-12T20:24:51.361Z,12.68
2018-04-12T20:27:18.889Z,12.49
2018-04-12T20:29:46.434Z,12.46
2018-04-12T20:32:13.964Z,12.37
2018-04-12T20:34:41.541Z,12.35
2018-04-12T20:37:09.069Z,12.43
2018-04-12T20:39:36.659Z,12.36
2018-04-12T20:42:04.173Z,12.03
2018-04-12T20:44:31.727Z,12.00
2018-04-12T20:46:59.254Z,11.91
2018-04-12T20:49:26.831Z,11.89
2018-04-12T20:51:54.359Z,11.79
2018-04-12T20:54:21.885Z,11.97
2018-04-12T20:56:49.437Z,11.87
2018-04-12T20:59:16.966Z,11.86
2018-04-12T21:01:44.539Z,11.88
2018-04-12T21:04:12.070Z,11.76
2018-04-12T21:06:39.606Z,11.54
2018-04-12T21:09:07.202Z,11.24
2018-04-12T21:11:34.749Z,11.13
2018-04-12T21:14:02.282Z,10.66
2018-04-12T21:16:29.883Z,10.96
2018-04-12T21:18:57.406Z,10.89
2018-04-12T21:21:24.961Z,10.62
2018-04-12T21:23:53.357Z,10.80
2018-04-12T21:26:21.168Z,10.95
2018-04-12T21:28:48.817Z,10.98
2018-04-12T21:31:16.368Z,11.02
2018-04-12T21:33:43.927Z,10.25
2018-04-12T21:36:14.594Z,10.67
2018-04-12T21:38:43.192Z,10.86
2018-04-12T21:41:11.280Z,10.72
2018-04-12T21:43:39.344Z,10.78
2018-04-12T21:46:08.233Z,10.68
2018-04-12T21:48:37.887Z,10.58
2018-04-12T21:51:06.583Z,10.66
2018-04-12T21:53:34.214Z,10.70
2018-04-12T21:56:02.225Z,10.62
2018-04-12T21:58:31.773Z,10.52
2018-04-12T22:01:00.121Z,10.51
2018-04-12T22:03:29.194Z,10.54
2018-04-12T22:05:56.854Z,10.51
2018-04-12T22:08:24.609Z,10.51
2018-04-12T22:10:53.000Z,10.63
2018-04-12T22:13:21.595Z,10.45
2018-04-12T22:15:49.892Z,9.91
2018-04-12T22:18:17.414Z,9.79
2018-04-12T22:20:45.986Z,9.99
2018-04-12T22:23:13.513Z,9.96
2018-04-12T22:25:41.119Z,10.19
2018-04-12T22:28:08.671Z,10.10
2018-04-12T22:30:39.474Z,9.81
2018-04-12T22:33:06.999Z,9.89
2018-04-12T22:35:34.575Z,9.90
2018-04-12T22:38:02.156Z,9.91
2018-04-12T22:40:29.743Z,9.92
2018-04-12T22:42:57.408Z,9.83
2018-04-12T22:45:24.943Z,9.64
2018-04-12T22:47:52.534Z,9.73
2018-04-12T22:50:20.164Z,9.52
2018-04-12T22:52:47.755Z,9.76
2018-04-12T22:55:16.126Z,9.92
2018-04-12T22:57:43.688Z,9.95
2018-04-12T23:00:11.251Z,9.89
2018-04-12T23:02:38.804Z,9.69
2018-04-12T23:05:06.334Z,9.02
2018-04-12T23:07:33.882Z,9.43
2018-04-12T23:10:01.409Z,9.39
2018-04-12T23:12:28.966Z,9.50
2018-04-12T23:14:56.514Z,9.43
2018-04-12T23:17:24.067Z,9.50
2018-04-12T23:19:51.596Z,9.54
2018-04-12T23:22:19.178Z,9.47
2018-04-12T23:24:46.738Z,9.41
2018-04-12T23:27:14.297Z,9.43
2018-04-12T23:29:41.856Z,9.19
2018-04-12T23:32:09.425Z,9.03
2018-04-12T23:34:36.984Z,9.02
2018-04-12T23:37:04.637Z,9.05
2018-04-12T23:39:32.161Z,9.22
2018-04-12T23:41:59.716Z,9.20
2018-04-12T23:44:27.242Z,9.12
2018-04-12T23:46:54.796Z,8.67
2018-04-12T23:49:22.295Z,8.74
2018-04-12T23:51:49.849Z,8.52
2018-04-12T23:54:17.397Z,8.85
2018-04-12T23:56:44.954Z,8.85
2018-04-12T23:59:12.572Z,8.98
